sensor_id;sensor_type;location;lat;lon;timestamp;pressure;altitude;pressure_sealevel;temperature;humidity
22047;BME280;11187;49.412;20.956;2024-02-23T00:01:44;93480.78;;;6.82;100.00
22047;BME280;11187;49.412;20.956;2024-02-23T00:04:18;93476.50;;;6.84;100.00
22047;BME280;11187;49.412;20.956;2024-02-23T00:07:05;93469.72;;;6.83;100.00
22047;BME280;11187;49.412;20.956;2024-02-23T00:09:45;93468.88;;;6.84;100.00
22047;BME280;11187;49.412;20.956;2024-02-23T00:12:32;93475.72;;;6.82;100.00
22047;BME280;11187;49.412;20.956;2024-02-23T00:15:05;93474.88;;;6.81;100.00
22047;BME280;11187;49.412;20.956;2024-02-23T00:17:52;93481.63;;;6.82;100.00
22047;BME280;11187;49.412;20.956;2024-02-23T00:20:25;93475.63;;;6.83;100.00
22047;BME280;11187;49.412;20.956;2024-02-23T00:23:19;93481.50;;;6.85;100.00
22047;BME280;11187;49.412;20.956;2024-02-23T00:26:13;93474.00;;;6.82;100.00
22047;BME280;11187;49.412;20.956;2024-02-23T00:28:46;93468.00;;;6.83;100.00
22047;BME280;11187;49.412;20.956;2024-02-23T00:31:33;93470.50;;;6.85;100.00
22047;BME280;11187;49.412;20.956;2024-02-23T00:34:07;93475.72;;;6.82;100.00
22047;BME280;11187;49.412;20.956;2024-02-23T00:37:01;93481.66;;;6.81;100.00
22047;BME280;11187;49.412;20.956;2024-02-23T00:39:37;93472.38;;;6.80;100.00
22047;BME280;11187;49.412;20.956;2024-02-23T00:45:16;93480.16;;;6.75;100.00
22047;BME280;11187;49.412;20.956;2024-02-23T00:48:10;93475.91;;;6.74;100.00
22047;BME280;11187;49.412;20.956;2024-02-23T00:50:43;93475.91;;;6.74;100.00
22047;BME280;11187;49.412;20.956;2024-02-23T00:53:37;93481.91;;;6.73;100.00
22047;BME280;11187;49.412;20.956;2024-02-23T00:56:17;93489.66;;;6.68;100.00
22047;BME280;11187;49.412;20.956;2024-02-23T00:59:24;93486.47;;;6.62;100.00
22047;BME280;11187;49.412;20.956;2024-02-23T01:01:57;93486.56;;;6.59;100.00
22047;BME280;11187;49.412;20.956;2024-02-23T01:04:45;93493.34;;;6.58;100.00
22047;BME280;11187;49.412;20.956;2024-02-23T01:07:18;93490.91;;;6.55;100.00
22047;BME280;11187;49.412;20.956;2024-02-23T01:10:07;93491.94;;;6.50;100.00
22047;BME280;11187;49.412;20.956;2024-02-23T01:12:40;93498.78;;;6.46;100.00
22047;BME280;11187;49.412;20.956;2024-02-23T01:15:27;93494.63;;;6.43;100.00
22047;BME280;11187;49.412;20.956;2024-02-23T01:18:00;93493.88;;;6.40;100.00
22047;BME280;11187;49.412;20.956;2024-02-23T01:20:48;93495.63;;;6.38;100.00
22047;BME280;11187;49.412;20.956;2024-02-23T01:23:42;93497.44;;;6.34;100.00
22047;BME280;11187;49.412;20.956;2024-02-23T01:26:36;93492.38;;;6.33;100.00
22047;BME280;11187;49.412;20.956;2024-02-23T01:29:09;93496.78;;;6.27;100.00
22047;BME280;11187;49.412;20.956;2024-02-23T01:31:57;93493.47;;;6.24;100.00
22047;BME280;11187;49.412;20.956;2024-02-23T01:34:30;93490.22;;;6.19;100.00
22047;BME280;11187;49.412;20.956;2024-02-23T01:37:17;93485.25;;;6.16;100.00
22047;BME280;11187;49.412;20.956;2024-02-23T01:39:51;93481.81;;;6.17;100.00
22047;BME280;11187;49.412;20.956;2024-02-23T01:42:38;93481.91;;;6.14;100.00
22047;BME280;11187;49.412;20.956;2024-02-23T01:45:11;93480.31;;;6.10;100.00
22047;BME280;11187;49.412;20.956;2024-02-23T01:47:59;93483.72;;;6.09;100.00
22047;BME280;11187;49.412;20.956;2024-02-23T01:50:34;93477.81;;;6.08;100.00
22047;BME280;11187;49.412;20.956;2024-02-23T01:53:28;93479.63;;;6.04;100.00
22047;BME280;11187;49.412;20.956;2024-02-23T01:56:22;93473.75;;;6.02;100.00
22047;BME280;11187;49.412;20.956;2024-02-23T01:58:55;93464.50;;;6.00;100.00
22047;BME280;11187;49.412;20.956;2024-02-23T02:01:46;93466.25;;;5.98;100.00
22047;BME280;11187;49.412;20.956;2024-02-23T02:04:19;93463.75;;;5.96;100.00
22047;BME280;11187;49.412;20.956;2024-02-23T02:07:06;93466.31;;;5.95;100.00
22047;BME280;11187;49.412;20.956;2024-02-23T02:09:39;93462.97;;;5.93;100.00
22047;BME280;11187;49.412;20.956;2024-02-23T02:12:31;93462.19;;;5.91;100.00
22047;BME280;11187;49.412;20.956;2024-02-23T02:15:05;93463.97;;;5.87;100.00
22047;BME280;11187;49.412;20.956;2024-02-23T02:17:52;93469.06;;;5.85;100.00
22047;BME280;11187;49.412;20.956;2024-02-23T02:20:27;93466.50;;;5.87;100.00
22047;BME280;11187;49.412;20.956;2024-02-23T02:23:15;93451.31;;;5.85;100.00
22047;BME280;11187;49.412;20.956;2024-02-23T02:25:58;93458.97;;;5.84;100.00
22047;BME280;11187;49.412;20.956;2024-02-23T02:28:45;93451.44;;;5.81;100.00
22047;BME280;11187;49.412;20.956;2024-02-23T02:31:19;93451.44;;;5.81;100.00
22047;BME280;11187;49.412;20.956;2024-02-23T02:34:06;93459.97;;;5.78;100.00
22047;BME280;11187;49.412;20.956;2024-02-23T02:36:39;93450.69;;;5.77;100.00
22047;BME280;11187;49.412;20.956;2024-02-23T02:39:33;93451.50;;;5.79;100.00
22047;BME280;11187;49.412;20.956;2024-02-23T02:42:27;93452.31;;;5.80;100.00
22047;BME280;11187;49.412;20.956;2024-02-23T02:45:21;93446.41;;;5.79;100.00
22047;BME280;11187;49.412;20.956;2024-02-23T02:47:54;93445.56;;;5.79;100.00
22047;BME280;11187;49.412;20.956;2024-02-23T02:50:44;93443.09;;;5.76;100.00
22047;BME280;11187;49.412;20.956;2024-02-23T02:53:20;93438.91;;;5.75;100.00
22047;BME280;11187;49.412;20.956;2024-02-23T02:56:14;93438.06;;;5.74;100.00
22047;BME280;11187;49.412;20.956;2024-02-23T02:59:08;93443.94;;;5.76;100.00
22047;BME280;11187;49.412;20.956;2024-02-23T03:02:06;93446.47;;;5.76;100.00
22047;BME280;11187;49.412;20.956;2024-02-23T03:04:46;93448.97;;;5.78;100.00
22047;BME280;11187;49.412;20.956;2024-02-23T03:07:35;93446.44;;;5.78;100.00
22047;BME280;11187;49.412;20.956;2024-02-23T03:10:08;93448.09;;;5.79;100.00
22047;BME280;11187;49.412;20.956;2024-02-23T03:12:55;93446.41;;;5.79;100.00
22047;BME280;11187;49.412;20.956;2024-02-23T03:15:28;93455.78;;;5.77;100.00
22047;BME280;11187;49.412;20.956;2024-02-23T03:18:15;93446.41;;;5.79;100.00
22047;BME280;11187;49.412;20.956;2024-02-23T03:25:11;93442.16;;;5.80;100.00
22047;BME280;11187;49.412;20.956;2024-02-23T03:28:05;93442.16;;;5.80;100.00
22047;BME280;11187;49.412;20.956;2024-02-23T03:30:38;93445.56;;;5.79;100.00
22047;BME280;11187;49.412;20.956;2024-02-23T03:33:25;93445.53;;;5.80;100.00
22047;BME280;11187;49.412;20.956;2024-02-23T03:35:58;93452.34;;;5.78;100.00
22047;BME280;11187;49.412;20.956;2024-02-23T03:38:52;93447.25;;;5.78;100.00
22047;BME280;11187;49.412;20.956;2024-02-23T03:41:25;93454.81;;;5.81;100.00
22047;BME280;11187;49.412;20.956;2024-02-23T03:44:19;93457.31;;;5.83;100.00
22047;BME280;11187;49.412;20.956;2024-02-23T03:46:52;93452.22;;;5.83;100.00
22047;BME280;11187;49.412;20.956;2024-02-23T03:49:41;93451.41;;;5.82;100.00
22047;BME280;11187;49.412;20.956;2024-02-23T03:52:14;93454.81;;;5.81;100.00
22047;BME280;11187;49.412;20.956;2024-02-23T03:55:08;93463.19;;;5.83;100.00
22047;BME280;11187;49.412;20.956;2024-02-23T03:58:04;93465.84;;;5.80;100.00
22047;BME280;11187;49.412;20.956;2024-02-23T04:00:39;93461.59;;;5.81;100.00
22047;BME280;11187;49.412;20.956;2024-02-23T04:03:33;93467.56;;;5.80;100.00
22047;BME280;11187;49.412;20.956;2024-02-23T04:06:27;93477.69;;;5.81;100.00
22047;BME280;11187;49.412;20.956;2024-02-23T04:09:01;93481.91;;;5.81;100.00
22047;BME280;11187;49.412;20.956;2024-02-23T04:11:49;93481.88;;;5.82;100.00
22047;BME280;11187;49.412;20.956;2024-02-23T04:14:22;93474.22;;;5.84;100.00
22047;BME280;11187;49.412;20.956;2024-02-23T04:17:11;93476.75;;;5.84;100.00
22047;BME280;11187;49.412;20.956;2024-02-23T04:19:45;93486.06;;;5.83;100.00
22047;BME280;11187;49.412;20.956;2024-02-23T04:22:32;93484.44;;;5.81;100.00
22047;BME280;11187;49.412;20.956;2024-02-23T04:25:05;93481.88;;;5.82;100.00
22047;BME280;11187;49.412;20.956;2024-02-23T04:27:54;93482.78;;;5.80;100.00
22047;BME280;11187;49.412;20.956;2024-02-23T04:30:27;93480.22;;;5.81;100.00
22047;BME280;11187;49.412;20.956;2024-02-23T04:33:21;93484.50;;;5.79;100.00
22047;BME280;11187;49.412;20.956;2024-02-23T04:35:54;93481.19;;;5.76;100.00
22047;BME280;11187;49.412;20.956;2024-02-23T04:38:48;93479.44;;;5.78;100.00
22047;BME280;11187;49.412;20.956;2024-02-23T04:41:42;93474.41;;;5.76;100.00
22047;BME280;11187;49.412;20.956;2024-02-23T04:44:40;93477.03;;;5.73;100.00
22047;BME280;11187;49.412;20.956;2024-02-23T04:47:14;93483.81;;;5.73;100.00
22047;BME280;11187;49.412;20.956;2024-02-23T04:50:08;93480.50;;;5.71;100.00
22047;BME280;11187;49.412;20.956;2024-02-23T04:53:02;93488.97;;;5.70;100.00
22047;BME280;11187;49.412;20.956;2024-02-23T04:55:37;93487.31;;;5.69;100.00
22047;BME280;11187;49.412;20.956;2024-02-23T04:58:27;93487.31;;;5.69;100.00
22047;BME280;11187;49.412;20.956;2024-02-23T05:01:00;93495.75;;;5.69;100.00
22047;BME280;11187;49.412;20.956;2024-02-23T05:03:54;93491.69;;;5.63;100.00
22047;BME280;11187;49.412;20.956;2024-02-23T05:06:27;93488.34;;;5.61;100.00
22047;BME280;11187;49.412;20.956;2024-02-23T05:09:21;93494.22;;;5.63;100.00
22047;BME280;11187;49.412;20.956;2024-02-23T05:11:54;93486.59;;;5.63;100.00
22047;BME280;11187;49.412;20.956;2024-02-23T05:14:43;93488.34;;;5.61;100.00
22047;BME280;11187;49.412;20.956;2024-02-23T05:17:16;93487.56;;;5.58;100.00
22047;BME280;11187;49.412;20.956;2024-02-23T05:20:10;93491.81;;;5.59;100.00
22047;BME280;11187;49.412;20.956;2024-02-23T05:22:44;93498.63;;;5.57;100.00
22047;BME280;11187;49.412;20.956;2024-02-23T05:25:31;93494.34;;;5.59;100.00
22047;BME280;11187;49.412;20.956;2024-02-23T05:28:04;93507.06;;;5.57;100.00
22047;BME280;11187;49.412;20.956;2024-02-23T05:30:58;93496.91;;;5.57;100.00
22047;BME280;11187;49.412;20.956;2024-02-23T05:33:31;93498.66;;;5.55;100.00
22047;BME280;11187;49.412;20.956;2024-02-23T05:36:19;93507.09;;;5.56;100.00
22047;BME280;11187;49.412;20.956;2024-02-23T05:39:13;93507.06;;;5.57;100.00
22047;BME280;11187;49.412;20.956;2024-02-23T05:41:48;93510.44;;;5.56;100.00
22047;BME280;11187;49.412;20.956;2024-02-23T05:44:35;93509.63;;;5.56;100.00
22047;BME280;11187;49.412;20.956;2024-02-23T05:47:08;93514.75;;;5.54;100.00
22047;BME280;11187;49.412;20.956;2024-02-23T05:49:55;93513.88;;;5.55;100.00
22047;BME280;11187;49.412;20.956;2024-02-23T05:52:30;93518.97;;;5.54;100.00
22047;BME280;11187;49.412;20.956;2024-02-23T05:55:19;93527.47;;;5.53;100.00
22047;BME280;11187;49.412;20.956;2024-02-23T05:57:52;93526.66;;;5.52;100.00
22047;BME280;11187;49.412;20.956;2024-02-23T06:00:39;93530.84;;;5.53;100.00
22047;BME280;11187;49.412;20.956;2024-02-23T06:03:12;93530.88;;;5.52;100.00
22047;BME280;11187;49.412;20.956;2024-02-23T06:05:59;93530.94;;;5.50;100.00
22047;BME280;11187;49.412;20.956;2024-02-23T06:08:32;93540.25;;;5.50;100.00
22047;BME280;11187;49.412;20.956;2024-02-23T06:11:19;93539.47;;;5.48;100.00
22047;BME280;11187;49.412;20.956;2024-02-23T06:13:52;93543.69;;;5.47;100.00
22047;BME280;11187;49.412;20.956;2024-02-23T06:16:39;93541.94;;;5.49;100.00
22047;BME280;11187;49.412;20.956;2024-02-23T06:19:33;93547.94;;;5.47;100.00
22047;BME280;11187;49.412;20.956;2024-02-23T06:22:27;93551.38;;;5.44;100.00
22047;BME280;11187;49.412;20.956;2024-02-23T06:25:07;93553.88;;;5.46;100.00
22047;BME280;11187;49.412;20.956;2024-02-23T06:27:47;93553.81;;;5.47;100.00
22047;BME280;11187;49.412;20.956;2024-02-23T06:30:27;93557.25;;;5.46;100.00
22047;BME280;11187;49.412;20.956;2024-02-23T06:33:07;93563.16;;;5.47;100.00
22047;BME280;11187;49.412;20.956;2024-02-23T06:35:47;93561.53;;;5.44;100.00
22047;BME280;11187;49.412;20.956;2024-02-23T06:38:34;93563.97;;;5.47;100.00
22047;BME280;11187;49.412;20.956;2024-02-23T06:41:14;93573.38;;;5.45;100.00
22047;BME280;11187;49.412;20.956;2024-02-23T06:43:54;93574.13;;;5.47;100.00
22047;BME280;11187;49.412;20.956;2024-02-23T06:46:34;93570.81;;;5.45;100.00
22047;BME280;11187;49.412;20.956;2024-02-23T06:49:28;93576.78;;;5.42;100.00
22047;BME280;11187;49.412;20.956;2024-02-23T06:52:01;93570.88;;;5.42;100.00
22047;BME280;11187;49.412;20.956;2024-02-23T06:54:55;93576.78;;;5.42;100.00
22047;BME280;11187;49.412;20.956;2024-02-23T06:57:49;93578.47;;;5.43;100.00
22047;BME280;11187;49.412;20.956;2024-02-23T07:00:43;93585.19;;;5.44;100.00
22047;BME280;11187;49.412;20.956;2024-02-23T07:03:37;93576.72;;;5.46;100.00
22047;BME280;11187;49.412;20.956;2024-02-23T07:06:10;93584.28;;;5.47;100.00
22047;BME280;11187;49.412;20.956;2024-02-23T07:09:05;93577.56;;;5.46;100.00
22047;BME280;11187;49.412;20.956;2024-02-23T07:11:59;93586.81;;;5.49;100.00
22047;BME280;11187;49.412;20.956;2024-02-23T07:14:57;93575.78;;;5.50;100.00
22047;BME280;11187;49.412;20.956;2024-02-23T07:17:30;93580.81;;;5.51;100.00
22047;BME280;11187;49.412;20.956;2024-02-23T07:20:17;93584.16;;;5.53;100.00
22047;BME280;11187;49.412;20.956;2024-02-23T07:23:11;93577.34;;;5.55;100.00
22047;BME280;11187;49.412;20.956;2024-02-23T07:26:05;93578.13;;;5.59;100.00
22047;BME280;11187;49.412;20.956;2024-02-23T07:28:38;93589.06;;;5.61;100.00
22047;BME280;11187;49.412;20.956;2024-02-23T07:31:25;93587.34;;;5.61;100.00
22047;BME280;11187;49.412;20.956;2024-02-23T07:33:58;93587.28;;;5.64;100.00
22047;BME280;11187;49.412;20.956;2024-02-23T07:36:52;93581.34;;;5.65;100.00
22047;BME280;11187;49.412;20.956;2024-02-23T07:39:46;93584.69;;;5.66;100.00
22047;BME280;11187;49.412;20.956;2024-02-23T07:42:40;93582.91;;;5.70;100.00
22047;BME280;11187;49.412;20.956;2024-02-23T07:45:13;93590.47;;;5.73;100.00
22047;BME280;11187;49.412;20.956;2024-02-23T07:48:00;93586.09;;;5.78;100.00
22047;BME280;11187;49.412;20.956;2024-02-23T07:50:33;93584.41;;;5.78;100.00
22047;BME280;11187;49.412;20.956;2024-02-23T07:53:20;93584.34;;;5.81;100.00
22047;BME280;11187;49.412;20.956;2024-02-23T07:55:53;93586.75;;;5.86;100.00
22047;BME280;11187;49.412;20.956;2024-02-23T07:58:43;93590.84;;;5.92;100.00
22047;BME280;11187;49.412;20.956;2024-02-23T08:01:17;93580.63;;;5.95;100.00
22047;BME280;11187;49.412;20.956;2024-02-23T08:04:11;93581.31;;;6.01;100.00
22047;BME280;11187;49.412;20.956;2024-02-23T08:06:46;93575.25;;;6.07;100.00
22047;BME280;11187;49.412;20.956;2024-02-23T08:09:40;93580.22;;;6.12;100.00
22047;BME280;11187;49.412;20.956;2024-02-23T08:12:34;93585.13;;;6.18;100.00
22047;BME280;11187;49.412;20.956;2024-02-23T08:15:09;93573.13;;;6.23;100.00
22047;BME280;11187;49.412;20.956;2024-02-23T08:17:56;93584.94;;;6.25;100.00
22047;BME280;11187;49.412;20.956;2024-02-23T08:20:29;93578.81;;;6.33;100.00
22047;BME280;11187;49.412;20.956;2024-02-23T08:23:16;93585.47;;;6.37;100.00
22047;BME280;11187;49.412;20.956;2024-02-23T08:25:49;93585.44;;;6.38;100.00
22047;BME280;11187;49.412;20.956;2024-02-23T08:28:40;93582.00;;;6.39;100.00
22047;BME280;11187;49.412;20.956;2024-02-23T08:31:13;93583.66;;;6.40;100.00
22047;BME280;11187;49.412;20.956;2024-02-23T08:34:07;93581.91;;;6.42;100.00
22047;BME280;11187;49.412;20.956;2024-02-23T08:36:47;93579.38;;;6.42;100.00
22047;BME280;11187;49.412;20.956;2024-02-23T08:39:27;93583.66;;;6.40;100.00
22047;BME280;11187;49.412;20.956;2024-02-23T08:42:08;93587.94;;;6.40;100.00
22047;BME280;11187;49.412;20.956;2024-02-23T08:44:55;93587.94;;;6.40;100.00
22047;BME280;11187;49.412;20.956;2024-02-23T08:47:28;93577.75;;;6.40;100.00
22047;BME280;11187;49.412;20.956;2024-02-23T08:50:15;93593.81;;;6.42;100.00
22047;BME280;11187;49.412;20.956;2024-02-23T08:52:55;93589.63;;;6.39;100.00
22047;BME280;11187;49.412;20.956;2024-02-23T08:55:42;93592.16;;;6.41;100.00
22047;BME280;11187;49.412;20.956;2024-02-23T08:58:22;93592.06;;;6.44;100.00
22047;BME280;11187;49.412;20.956;2024-02-23T09:01:02;93588.66;;;6.45;100.00
22047;BME280;11187;49.412;20.956;2024-02-23T09:03:44;93581.75;;;6.48;100.00
22047;BME280;11187;49.412;20.956;2024-02-23T09:06:24;93585.94;;;6.51;100.00
22047;BME280;11187;49.412;20.956;2024-02-23T09:09:07;93573.97;;;6.55;100.00
22047;BME280;11187;49.412;20.956;2024-02-23T09:11:54;93586.63;;;6.56;100.00
22047;BME280;11187;49.412;20.956;2024-02-23T09:14:34;93587.47;;;6.57;100.00
22047;BME280;11187;49.412;20.956;2024-02-23T09:17:15;93593.41;;;6.57;100.00
22047;BME280;11187;49.412;20.956;2024-02-23T09:19:55;93599.25;;;6.61;100.00
22047;BME280;11187;49.412;20.956;2024-02-23T09:22:49;93597.56;;;6.60;100.00
22047;BME280;11187;49.412;20.956;2024-02-23T09:25:22;93595.03;;;6.58;100.00
22047;BME280;11187;49.412;20.956;2024-02-23T09:28:09;93598.44;;;6.59;100.00
22047;BME280;11187;49.412;20.956;2024-02-23T09:30:44;93597.56;;;6.60;100.00
22047;BME280;11187;49.412;20.956;2024-02-23T09:33:32;93615.25;;;6.63;100.00
22047;BME280;11187;49.412;20.956;2024-02-23T09:36:06;93604.22;;;6.64;100.00
22047;BME280;11187;49.412;20.956;2024-02-23T09:38:53;93613.59;;;6.62;100.00
22047;BME280;11187;49.412;20.956;2024-02-23T09:41:26;93608.44;;;6.65;100.00
22047;BME280;11187;49.412;20.956;2024-02-23T09:44:14;93621.06;;;6.68;100.00
22047;BME280;11187;49.412;20.956;2024-02-23T09:46:49;93619.34;;;6.70;100.00
22047;BME280;11187;49.412;20.956;2024-02-23T09:49:43;93619.22;;;6.73;100.00
22047;BME280;11187;49.412;20.956;2024-02-23T09:52:37;93620.97;;;6.71;100.00
22047;BME280;11187;49.412;20.956;2024-02-23T09:55:10;93635.28;;;6.75;100.00
22047;BME280;11187;49.412;20.956;2024-02-23T09:57:58;93634.41;;;6.76;100.00
22047;BME280;11187;49.412;20.956;2024-02-23T10:00:33;93631.78;;;6.79;100.00
22047;BME280;11187;49.412;20.956;2024-02-23T10:03:21;93627.53;;;6.80;100.00
22047;BME280;11187;49.412;20.956;2024-02-23T10:06:05;93615.59;;;6.82;100.00
22047;BME280;11187;49.412;20.956;2024-02-23T10:08:52;93621.44;;;6.85;100.00
22047;BME280;11187;49.412;20.956;2024-02-23T10:11:35;93617.97;;;6.88;100.00
22047;BME280;11187;49.412;20.956;2024-02-23T10:14:22;93629.00;;;6.88;100.00
22047;BME280;11187;49.412;20.956;2024-02-23T10:16:56;93630.69;;;6.88;100.00
22047;BME280;11187;49.412;20.956;2024-02-23T10:19:44;93633.28;;;6.86;100.00
22047;BME280;11187;49.412;20.956;2024-02-23T10:22:17;93634.00;;;6.90;100.00
22047;BME280;11187;49.412;20.956;2024-02-23T10:25:04;93638.31;;;6.88;100.00
22047;BME280;11187;49.412;20.956;2024-02-23T10:27:40;93640.84;;;6.88;100.00
22047;BME280;11187;49.412;20.956;2024-02-23T10:30:28;93636.53;;;6.92;100.00
22047;BME280;11187;49.412;20.956;2024-02-23T10:33:01;93644.94;;;6.94;100.00
22047;BME280;11187;49.412;20.956;2024-02-23T10:35:53;93647.50;;;6.94;100.00
22047;BME280;11187;49.412;20.956;2024-02-23T10:38:37;93656.72;;;6.98;100.00
22047;BME280;11187;49.412;20.956;2024-02-23T10:41:17;93654.97;;;7.00;100.00
22047;BME280;11187;49.412;20.956;2024-02-23T10:43:58;93649.81;;;7.01;100.00
22047;BME280;11187;49.412;20.956;2024-02-23T10:46:46;93651.50;;;7.02;100.00
22047;BME280;11187;49.412;20.956;2024-02-23T10:49:23;93662.47;;;7.04;100.00
22047;BME280;11187;49.412;20.956;2024-02-23T10:52:10;93652.22;;;7.06;100.00
22047;BME280;11187;49.412;20.956;2024-02-23T10:54:54;93666.66;;;7.05;100.00
22047;BME280;11187;49.412;20.956;2024-02-23T10:57:45;93671.66;;;7.08;100.00
22047;BME280;11187;49.412;20.956;2024-02-23T11:00:22;93664.03;;;7.08;100.00
22047;BME280;11187;49.412;20.956;2024-02-23T11:03:09;93659.78;;;7.09;100.00
22047;BME280;11187;49.412;20.956;2024-02-23T11:05:42;93660.59;;;7.11;100.00
22047;BME280;11187;49.412;20.956;2024-02-23T11:08:29;93663.13;;;7.11;100.00
22047;BME280;11187;49.412;20.956;2024-02-23T11:11:11;93663.97;;;7.11;100.00
22047;BME280;11187;49.412;20.956;2024-02-23T11:14:02;93664.69;;;7.15;100.00
22047;BME280;11187;49.412;20.956;2024-02-23T11:16:43;93661.19;;;7.19;100.00
22047;BME280;11187;49.412;20.956;2024-02-23T11:19:38;93668.78;;;7.21;100.00
22047;BME280;11187;49.412;20.956;2024-02-23T11:22:33;93657.66;;;7.25;100.00
22047;BME280;11187;49.412;20.956;2024-02-23T11:25:29;93657.53;;;7.28;100.00
22047;BME280;11187;49.412;20.956;2024-02-23T11:28:26;93649.88;;;7.29;100.00
22047;BME280;11187;49.412;20.956;2024-02-23T11:30:59;93664.94;;;7.36;100.00
22047;BME280;11187;49.412;20.956;2024-02-23T11:33:50;93668.25;;;7.39;100.00
22047;BME280;11187;49.412;20.956;2024-02-23T11:36:29;93668.28;;;7.38;100.00
22047;BME280;11187;49.412;20.956;2024-02-23T11:39:23;93675.06;;;7.39;100.00
22047;BME280;11187;49.412;20.956;2024-02-23T11:42:17;93672.44;;;7.40;100.00
22047;BME280;11187;49.412;20.956;2024-02-23T11:45:11;93677.53;;;7.40;100.00
22047;BME280;11187;49.412;20.956;2024-02-23T11:48:07;93677.50;;;7.42;100.00
22047;BME280;11187;49.412;20.956;2024-02-23T11:51:04;93672.38;;;7.43;100.00
22047;BME280;11187;49.412;20.956;2024-02-23T11:53:58;93672.41;;;7.42;100.00
22047;BME280;11187;49.412;20.956;2024-02-23T11:56:52;93667.25;;;7.45;100.00
22047;BME280;11187;49.412;20.956;2024-02-23T11:59:47;93672.22;;;7.49;100.00
22047;BME280;11187;49.412;20.956;2024-02-23T12:02:43;93674.63;;;7.54;100.00
22047;BME280;11187;49.412;20.956;2024-02-23T12:05:24;93671.16;;;7.55;100.00
22047;BME280;11187;49.412;20.956;2024-02-23T12:08:18;93674.50;;;7.57;100.00
22047;BME280;11187;49.412;20.956;2024-02-23T12:10:55;93675.31;;;7.59;100.00
22047;BME280;11187;49.412;20.956;2024-02-23T12:13:43;93680.31;;;7.61;100.00
22047;BME280;11187;49.412;20.956;2024-02-23T12:16:21;93682.13;;;7.59;100.00
22047;BME280;11187;49.412;20.956;2024-02-23T12:19:08;93683.81;;;7.58;100.00
22047;BME280;11187;49.412;20.956;2024-02-23T12:21:45;93687.22;;;7.59;100.00
22047;BME280;11187;49.412;20.956;2024-02-23T12:24:32;93684.56;;;7.62;100.00
22047;BME280;11187;49.412;20.956;2024-02-23T12:27:05;93689.56;;;7.65;100.00
22047;BME280;11187;49.412;20.956;2024-02-23T12:29:59;93677.03;;;7.59;100.00
22047;BME280;11187;49.412;20.956;2024-02-23T12:33:08;93682.94;;;7.59;100.00
22047;BME280;11187;49.412;20.956;2024-02-23T12:35:42;93679.47;;;7.62;100.00
22047;BME280;11187;49.412;20.956;2024-02-23T12:38:28;93679.44;;;7.63;100.00
22047;BME280;11187;49.412;20.956;2024-02-23T12:41:08;93683.72;;;7.61;100.00
22047;BME280;11187;49.412;20.956;2024-02-23T12:43:48;93687.97;;;7.61;100.00
22047;BME280;11187;49.412;20.956;2024-02-23T12:46:28;93693.81;;;7.64;100.00
22047;BME280;11187;49.412;20.956;2024-02-23T12:49:15;93691.16;;;7.67;100.00
22047;BME280;11187;49.412;20.956;2024-02-23T12:51:56;93687.00;;;7.65;100.00
22047;BME280;11187;49.412;20.956;2024-02-23T12:54:36;93687.94;;;7.62;100.00
22047;BME280;11187;49.412;20.956;2024-02-23T12:57:16;93693.00;;;7.64;100.00
22047;BME280;11187;49.412;20.956;2024-02-23T13:00:03;93694.66;;;7.65;100.00
22047;BME280;11187;49.412;20.956;2024-02-23T13:02:45;93703.19;;;7.64;100.00
22047;BME280;11187;49.412;20.956;2024-02-23T13:05:32;93695.50;;;7.65;100.00
22047;BME280;11187;49.412;20.956;2024-02-23T13:08:12;93701.47;;;7.64;100.00
22047;BME280;11187;49.412;20.956;2024-02-23T13:10:53;93701.34;;;7.67;100.00
22047;BME280;11187;49.412;20.956;2024-02-23T13:13:34;93704.75;;;7.68;100.00
22047;BME280;11187;49.412;20.956;2024-02-23T13:16:21;93698.06;;;7.65;100.00
22047;BME280;11187;49.412;20.956;2024-02-23T13:19:01;93713.38;;;7.64;100.00
22047;BME280;11187;49.412;20.956;2024-02-23T13:21:42;93715.00;;;7.66;100.00
22047;BME280;11187;49.412;20.956;2024-02-23T13:24:22;93709.13;;;7.63;100.00
22047;BME280;11187;49.412;20.956;2024-02-23T13:27:02;93701.59;;;7.60;100.00
22047;BME280;11187;49.412;20.956;2024-02-23T13:29:49;93700.69;;;7.61;100.00
22047;BME280;11187;49.412;20.956;2024-02-23T13:32:43;93699.00;;;7.61;100.00
22047;BME280;11187;49.412;20.956;2024-02-23T13:35:16;93699.75;;;7.65;100.00
22047;BME280;11187;49.412;20.956;2024-02-23T13:38:10;93697.97;;;7.67;100.00
22047;BME280;11187;49.412;20.956;2024-02-23T13:40:43;93703.06;;;7.67;100.00
22047;BME280;11187;49.412;20.956;2024-02-23T13:43:30;93701.47;;;7.64;100.00
22047;BME280;11187;49.412;20.956;2024-02-23T13:46:03;93710.84;;;7.62;100.00
22047;BME280;11187;49.412;20.956;2024-02-23T13:49:02;93710.00;;;7.63;100.00
22047;BME280;11187;49.412;20.956;2024-02-23T13:51:36;93700.63;;;7.64;100.00
22047;BME280;11187;49.412;20.956;2024-02-23T13:54:23;93711.66;;;7.64;100.00
22047;BME280;11187;49.412;20.956;2024-02-23T13:56:56;93717.56;;;7.65;100.00
22047;BME280;11187;49.412;20.956;2024-02-23T13:59:43;93722.72;;;7.63;100.00
22047;BME280;11187;49.412;20.956;2024-02-23T14:02:16;93725.28;;;7.63;100.00
22047;BME280;11187;49.412;20.956;2024-02-23T14:05:06;93722.75;;;7.62;100.00
22047;BME280;11187;49.412;20.956;2024-02-23T14:07:40;93721.94;;;7.61;100.00
22047;BME280;11187;49.412;20.956;2024-02-23T14:10:27;93719.28;;;7.64;100.00
22047;BME280;11187;49.412;20.956;2024-02-23T14:13:00;93726.94;;;7.64;100.00
22047;BME280;11187;49.412;20.956;2024-02-23T14:15:47;93734.59;;;7.63;100.00
22047;BME280;11187;49.412;20.956;2024-02-23T14:18:20;93729.56;;;7.61;100.00
22047;BME280;11187;49.412;20.956;2024-02-23T14:21:07;93734.75;;;7.58;100.00
22047;BME280;11187;49.412;20.956;2024-02-23T14:23:47;93733.13;;;7.56;100.00